Time;durP1;ratioP1;P1;durP2;ratioP2;P2;SDS_P1;SDS_P2;PMS_P1;PMS_P2;Temp;Humidity;BMP_temperature;BMP_pressure;BME280_temperature;BME280_humidity;BME280_pressure;Samples;Min_cycle;Max_cycle;Signal;HPM_P1;HPM_P2
2022/01/21 00:01:27;;;;;;;19.42;2.22;;;;;;;1.39;89.37;103581.09;5074892;28;20082;-77
2022/01/21 00:03:54;;;;;;;11.90;1.65;;;;;;;1.36;89.77;103580.25;5075952;28;20469;-76
2022/01/21 00:06:19;;;;;;;13.07;1.92;;;;;;;1.36;89.44;103580.25;5076424;28;20033;-77
2022/01/21 00:08:47;;;;;;;10.35;1.70;;;;;;;1.30;89.40;103578.56;5075969;28;20039;-77
2022/01/21 00:11:14;;;;;;;12.63;1.90;;;;;;;1.25;89.88;103576.84;5075568;28;20052;-77
2022/01/21 00:13:40;;;;;;;13.68;2.03;;;;;;;1.26;90.07;103578.59;5075836;28;20469;-77
2022/01/21 00:16:06;;;;;;;14.52;2.38;;;;;;;1.27;90.32;103583.81;5076021;28;20036;-77
2022/01/21 00:18:37;;;;;;;15.48;2.85;;;;;;;1.21;89.77;103581.25;5075443;28;20058;-78
2022/01/21 00:32:14;;;;;;;9.75;1.95;;;;;;;1.23;90.92;103590.81;5075953;28;20090;-77
2022/01/21 00:34:40;;;;;;;15.00;2.25;;;;;;;1.30;90.81;103581.19;5075493;28;20384;-77
2022/01/21 00:37:05;;;;;;;8.27;1.75;;;;;;;1.38;91.01;103589.84;5075374;28;20442;-77
2022/01/21 00:39:33;;;;;;;25.05;2.95;;;;;;;1.44;90.88;103575.81;5074182;28;20029;-76
2022/01/21 00:44:30;;;;;;;15.50;2.53;;;;;;;1.73;89.66;103587.78;5075426;28;20048;-77
2022/01/21 00:46:56;;;;;;;16.13;2.30;;;;;;;1.86;89.29;103583.31;5075444;28;20113;-77
2022/01/21 00:49:21;;;;;;;14.43;1.63;;;;;;;1.92;89.35;103581.47;5074906;28;20039;-77
2022/01/21 00:51:47;;;;;;;17.02;2.08;;;;;;;1.94;89.55;103592.84;5073889;28;20384;-77
2022/01/21 00:54:13;;;;;;;12.93;1.65;;;;;;;1.92;89.88;103583.25;5075132;28;20028;-78
2022/01/21 00:56:39;;;;;;;12.77;1.98;;;;;;;1.93;90.39;103577.97;5074964;28;20039;-77
2022/01/21 00:59:04;;;;;;;17.75;2.05;;;;;;;1.97;90.76;103578.84;5074781;28;20078;-77
2022/01/21 01:01:30;;;;;;;13.23;2.30;;;;;;;2.01;90.63;103584.91;5075183;28;20031;-77
2022/01/21 01:03:55;;;;;;;13.75;1.80;;;;;;;2.02;90.47;103587.50;5074900;28;20028;-77
2022/01/21 01:06:20;;;;;;;11.35;1.75;;;;;;;2.04;90.65;103585.72;5074739;28;20029;-77
2022/01/21 01:08:48;;;;;;;9.43;1.40;;;;;;;2.05;90.38;103586.63;5074836;28;20404;-77
2022/01/21 01:11:20;;;;;;;12.32;1.65;;;;;;;2.01;90.49;103592.78;5074990;28;20044;-77
2022/01/21 01:21:57;;;;;;;14.82;1.60;;;;;;;1.83;90.13;103588.59;5074463;28;20059;-77
2022/01/21 01:29:51;;;;;;;14.25;1.95;;;;;;;1.57;91.18;103587.09;5074546;28;20139;-77
2022/01/21 01:32:17;;;;;;;10.55;1.58;;;;;;;1.53;91.80;103580.13;5074076;28;20064;-77
2022/01/21 01:34:42;;;;;;;11.75;1.83;;;;;;;1.50;92.11;103582.75;5074251;28;20116;-77
2022/01/21 01:37:15;;;;;;;10.68;1.55;;;;;;;1.45;92.54;103584.53;5074272;28;20491;-77
2022/01/21 01:39:47;;;;;;;10.95;1.92;;;;;;;1.46;93.30;103588.91;5073943;28;20369;-78
2022/01/21 01:50:36;;;;;;;9.93;1.67;;;;;;;1.56;93.71;103593.22;5074307;28;20186;-77
2022/01/21 01:53:03;;;;;;;8.20;1.42;;;;;;;1.45;94.06;103592.41;5073655;28;20082;-77
2022/01/21 01:55:29;;;;;;;13.45;1.77;;;;;;;1.38;94.63;103584.59;5073892;28;20024;-76
2022/01/21 01:57:54;;;;;;;6.85;1.05;;;;;;;1.32;95.16;103587.28;5073560;28;20037;-75
2022/01/21 02:00:20;;;;;;;13.45;1.40;;;;;;;1.26;95.52;103583.84;5073249;28;20028;-77
2022/01/21 02:02:45;;;;;;;9.93;1.10;;;;;;;1.13;95.34;103578.66;5073407;28;20036;-77
2022/01/21 02:05:10;;;;;;;8.20;1.10;;;;;;;1.01;95.54;103584.84;5073592;28;20029;-77
2022/01/21 02:07:36;;;;;;;15.00;1.58;;;;;;;0.95;96.00;103586.66;5072682;28;20036;-77
2022/01/21 02:10:03;;;;;;;6.80;1.02;;;;;;;0.87;96.11;103578.84;5073392;28;20041;-77
2022/01/21 02:12:28;;;;;;;6.95;1.08;;;;;;;0.82;96.61;103588.47;5073289;28;20098;-77
2022/01/21 02:14:55;;;;;;;16.02;1.67;;;;;;;0.79;96.78;103583.25;5073560;28;20033;-77
2022/01/21 02:22:37;;;;;;;6.93;2.00;;;;;;;0.64;97.34;103585.09;5073340;28;20105;-77
2022/01/21 02:25:18;;;;;;;13.03;1.73;;;;;;;0.65;97.92;103580.72;5072476;28;20063;-76
2022/01/21 02:27:52;;;;;;;11.77;2.03;;;;;;;0.70;98.61;103581.53;5073412;28;20064;-77
2022/01/21 02:30:20;;;;;;;16.60;1.90;;;;;;;0.77;98.87;103590.25;5072852;28;20535;-77
2022/01/21 02:32:51;;;;;;;8.73;1.45;;;;;;;0.81;99.19;103592.84;5071796;28;20082;-77
2022/01/21 02:35:17;;;;;;;;;;;;;;;0.91;99.62;103595.41;5073726;28;20039;-77
2022/01/21 02:37:43;;;;;;;22.90;2.67;;;;;;;1.00;99.60;103585.75;5073295;28;20280;-77
2022/01/21 02:40:10;;;;;;;12.23;1.63;;;;;;;1.19;99.67;103596.09;5073121;28;20078;-77
2022/01/21 02:42:36;;;;;;;18.23;1.95;;;;;;;1.29;99.24;103600.41;5073058;28;20029;-77
2022/01/21 02:45:05;;;;;;;16.58;2.50;;;;;;;1.38;98.91;103602.09;5073286;28;20476;-77
2022/01/21 02:47:31;;;;;;;17.60;2.58;;;;;;;1.46;98.53;103607.28;5072971;28;20028;-77
2022/01/21 02:49:56;;;;;;;7.15;1.45;;;;;;;1.54;98.50;103589.72;5072871;28;20029;-77
2022/01/21 02:52:25;;;;;;;10.90;1.42;;;;;;;1.68;98.06;103579.09;5071867;28;20426;-77
2022/01/21 02:54:50;;;;;;;22.02;3.53;;;;;;;1.69;97.69;103576.47;5072721;28;20036;-77
2022/01/21 02:57:16;;;;;;;8.63;1.52;;;;;;;1.62;97.11;103574.78;5073055;28;20434;-77
2022/01/21 02:59:41;;;;;;;9.68;1.42;;;;;;;1.54;96.83;103576.63;5072788;28;20111;-77
2022/01/21 03:02:07;;;;;;;9.10;1.38;;;;;;;1.41;96.58;103576.69;5072966;28;20033;-77
2022/01/21 03:04:52;;;;;;;8.27;0.98;;;;;;;1.31;96.19;103571.53;5072074;28;20041;-77
2022/01/21 03:07:18;;;;;;;9.60;1.52;;;;;;;1.16;95.95;103562.91;5073022;28;20040;-77
2022/01/21 03:09:43;;;;;;;16.40;1.95;;;;;;;1.05;95.71;103560.34;5072333;28;20107;-76
2022/01/21 03:12:08;;;;;;;10.82;1.13;;;;;;;0.93;95.57;103570.94;5072759;28;20029;-77
2022/01/21 03:14:34;;;;;;;8.80;1.60;;;;;;;0.84;95.86;103571.00;5072929;28;20050;-76
2022/01/21 03:16:59;;;;;;;10.90;1.50;;;;;;;0.77;96.33;103577.16;5072811;28;20036;-76
2022/01/21 03:19:25;;;;;;;13.02;1.48;;;;;;;0.71;96.30;103578.06;5072680;28;20112;-76
2022/01/21 03:21:50;;;;;;;15.60;1.85;;;;;;;0.67;96.77;103581.56;5073706;28;20034;-77
2022/01/21 03:24:16;;;;;;;15.27;1.55;;;;;;;0.66;96.96;103579.84;5076557;28;20086;-76
2022/01/21 03:26:41;;;;;;;15.63;1.90;;;;;;;0.65;96.94;103576.31;5076529;28;20060;-77
2022/01/21 03:29:07;;;;;;;16.00;1.58;;;;;;;0.63;97.07;103585.94;5076611;28;20029;-76
2022/01/21 03:31:34;;;;;;;8.45;1.48;;;;;;;0.61;97.35;103585.09;5076348;28;20068;-77
2022/01/21 03:34:00;;;;;;;14.48;1.95;;;;;;;0.67;97.97;103574.59;5077161;28;20044;-77
2022/01/21 03:36:28;;;;;;;9.50;1.45;;;;;;;0.78;98.08;103573.66;5076298;28;20090;-76
2022/01/21 03:38:53;;;;;;;10.48;1.95;;;;;;;0.88;98.24;103576.22;5076394;28;20033;-77
2022/01/21 03:41:19;;;;;;;10.32;1.65;;;;;;;0.97;97.94;103577.91;5076291;28;20093;-77
2022/01/21 03:43:44;;;;;;;7.22;1.48;;;;;;;1.10;98.01;103577.81;5074766;28;20031;-77
2022/01/21 03:46:10;;;;;;;18.48;2.40;;;;;;;1.23;98.45;103579.47;5076613;28;20032;-77
2022/01/21 03:48:36;;;;;;;17.33;2.03;;;;;;;1.36;98.37;103578.50;5076382;28;20383;-78
2022/01/21 03:51:02;;;;;;;13.70;1.58;;;;;;;1.50;98.17;103586.25;5074703;28;20399;-77
2022/01/21 03:53:27;;;;;;;14.40;1.80;;;;;;;1.62;97.07;103593.16;5076318;28;20028;-77
2022/01/21 03:55:53;;;;;;;16.35;2.67;;;;;;;1.64;96.33;103596.63;5058901;28;20046;-77
2022/01/21 03:58:19;;;;;;;16.73;2.15;;;;;;;1.70;96.29;103600.94;5076369;28;20032;-77
2022/01/21 04:00:53;;;;;;;9.65;1.67;;;;;;;1.83;96.18;103613.09;5076065;28;20120;-78
2022/01/21 04:03:19;;;;;;;12.55;1.67;;;;;;;1.94;95.88;103594.59;5076136;28;20298;-76
2022/01/21 04:05:45;;;;;;;15.10;1.58;;;;;;;1.92;95.39;103597.22;5076264;28;20050;-77
2022/01/21 04:08:12;;;;;;;8.52;1.40;;;;;;;1.87;94.91;103600.81;5075541;28;20357;-77
2022/01/21 04:10:41;;;;;;;10.52;1.63;;;;;;;1.79;95.02;103595.59;5075765;28;20124;-78
2022/01/21 04:13:14;;;;;;;8.20;1.60;;;;;;;1.73;95.46;103595.66;5075731;28;20036;-77
2022/01/21 04:15:40;;;;;;;12.05;1.55;;;;;;;1.70;96.07;103607.09;5076218;28;20479;-77
2022/01/21 04:18:05;;;;;;;9.73;1.55;;;;;;;1.73;96.23;103599.19;5075425;28;20036;-77
2022/01/21 04:20:30;;;;;;;9.70;1.35;;;;;;;1.76;95.75;103601.78;5075884;28;20032;-77
2022/01/21 04:22:56;;;;;;;9.82;1.40;;;;;;;1.79;95.21;103594.75;5075569;28;20058;-77
2022/01/21 04:25:21;;;;;;;7.95;1.50;;;;;;;1.79;94.64;103595.59;5075226;28;20074;-77
2022/01/21 04:27:47;;;;;;;10.93;1.23;;;;;;;1.80;94.60;103593.88;5075454;28;20039;-78
2022/01/21 04:30:12;;;;;;;15.68;1.77;;;;;;;1.81;94.26;103595.59;5075062;28;20035;-77
2022/01/21 04:32:38;;;;;;;8.80;1.10;;;;;;;1.80;93.98;103594.72;5074979;28;20111;-78
2022/01/21 04:35:04;;;;;;;6.03;1.27;;;;;;;1.76;93.65;103596.53;5074737;28;20029;-77
2022/01/21 04:37:30;;;;;;;9.02;1.27;;;;;;;1.65;93.67;103598.38;5075491;28;20461;-77
2022/01/21 04:40:08;;;;;;;9.38;1.23;;;;;;;1.56;94.11;103604.56;5075337;28;20105;-78
2022/01/21 04:48:02;;;;;;;22.25;2.88;;;;;;;1.28;96.07;103592.56;5075245;28;20055;-78
2022/01/21 04:50:28;;;;;;;13.07;1.60;;;;;;;1.18;96.25;103595.25;5074814;28;20041;-77
2022/01/21 04:52:53;;;;;;;13.05;1.50;;;;;;;1.12;96.90;103603.16;5076174;28;20049;-78
2022/01/21 04:55:18;;;;;;;13.40;1.65;;;;;;;1.05;97.12;103601.47;5075059;28;20333;-78
2022/01/21 04:57:44;;;;;;;23.15;1.90;;;;;;;0.98;97.14;103603.22;5074925;28;20101;-77
2022/01/21 05:00:10;;;;;;;6.68;1.50;;;;;;;0.93;97.14;103607.66;5073698;28;20032;-78
2022/01/21 05:02:36;;;;;;;13.65;1.88;;;;;;;0.92;97.26;103607.66;5075135;28;20024;-77
2022/01/21 05:05:03;;;;;;;10.00;1.70;;;;;;;0.87;96.98;103610.31;5074616;28;20024;-77
2022/01/21 05:07:33;;;;;;;8.85;1.52;;;;;;;0.84;97.63;103613.81;5073469;28;20028;-77
2022/01/21 05:09:58;;;;;;;12.13;1.63;;;;;;;0.84;97.40;103605.94;5075142;28;20127;-77
2022/01/21 05:12:25;;;;;;;10.93;1.20;;;;;;;0.82;97.00;103602.47;5074536;28;20570;-78
2022/01/21 05:17:23;;;;;;;11.63;1.35;;;;;;;0.88;96.72;103598.91;5075180;28;20401;-77
2022/01/21 05:19:49;;;;;;;13.48;1.70;;;;;;;0.93;96.88;103601.53;5073344;28;20461;-78
2022/01/21 05:22:15;;;;;;;16.00;1.90;;;;;;;0.96;97.11;103597.13;5074379;28;20045;-78
2022/01/21 05:24:41;;;;;;;13.75;1.70;;;;;;;1.13;97.87;103599.63;5074223;28;20032;-77
2022/01/21 05:27:07;;;;;;;8.80;2.25;;;;;;;1.31;98.61;103597.78;5074027;28;20040;-77
2022/01/21 05:29:34;;;;;;;16.50;1.70;;;;;;;1.49;98.79;103597.63;5074433;28;20086;-77
2022/01/21 05:32:01;;;;;;;17.52;2.38;;;;;;;1.59;98.95;103585.31;5074288;28;20037;-78
2022/01/21 05:34:26;;;;;;;5.97;1.20;;;;;;;1.66;98.15;103589.63;5074173;28;20174;-78
2022/01/21 05:36:52;;;;;;;11.75;1.23;;;;;;;1.67;97.73;103593.09;5073823;28;20040;-78
2022/01/21 05:39:19;;;;;;;19.83;1.63;;;;;;;1.61;97.65;103588.78;5073892;28;20036;-78
2022/01/21 05:41:48;;;;;;;13.18;1.55;;;;;;;1.48;97.25;103585.41;5074180;28;20036;-78
2022/01/21 05:46:22;;;;;;;14.63;1.30;;;;;;;1.36;97.56;103586.38;5073853;28;20093;-78
2022/01/21 05:47:02;;;;;;;9.05;1.17;;;;;;;1.18;97.61;103576.00;5073284;28;20116;-78
2022/01/21 05:49:30;;;;;;;13.40;1.65;;;;;;;1.06;98.07;103576.97;5072768;28;20032;-77
2022/01/21 05:52:09;;;;;;;11.10;1.77;;;;;;;0.93;98.36;103575.31;5073791;28;20093;-78
2022/01/21 05:54:35;;;;;;;19.45;2.15;;;;;;;0.80;98.54;103571.88;5072618;28;20028;-78
2022/01/21 05:57:05;;;;;;;13.30;1.70;;;;;;;0.74;98.57;103569.31;5073893;28;20029;-78
2022/01/21 05:59:31;;;;;;;12.57;2.03;;;;;;;0.74;99.58;103579.78;5073667;28;20036;-78
2022/01/21 06:01:56;;;;;;;18.08;2.60;;;;;;;0.76;100.00;103578.03;5073326;28;20052;-79
2022/01/21 06:04:21;;;;;;;20.45;2.25;;;;;;;0.74;100.00;103582.41;5073324;28;20029;-79
2022/01/21 06:06:47;;;;;;;13.45;2.00;;;;;;;0.70;100.00;103585.06;5073716;28;20029;-78
2022/01/21 06:09:12;;;;;;;19.73;1.80;;;;;;;0.75;100.00;103592.88;5073522;28;20032;-78
2022/01/21 06:11:38;;;;;;;23.58;2.80;;;;;;;0.86;100.00;103603.31;5072243;28;20127;-78
2022/01/21 06:14:04;;;;;;;24.52;3.20;;;;;;;1.04;100.00;103610.19;5073579;28;20469;-78
2022/01/21 06:16:29;;;;;;;17.90;2.70;;;;;;;1.25;100.00;103610.94;5072456;28;20082;-78
2022/01/21 06:18:55;;;;;;;25.25;2.40;;;;;;;1.38;100.00;103600.34;5075150;28;20028;-79
2022/01/21 06:21:21;;;;;;;17.88;1.98;;;;;;;1.57;100.00;103602.84;5076944;28;20032;-79
2022/01/21 06:23:47;;;;;;;26.33;2.22;;;;;;;1.71;100.00;103600.06;5074876;28;20060;-78
2022/01/21 06:26:13;;;;;;;12.60;2.17;;;;;;;1.87;99.26;103590.31;5073446;28;20052;-78
2022/01/21 06:28:38;;;;;;;10.50;1.75;;;;;;;2.04;97.53;103590.97;5073051;28;20033;-78
2022/01/21 06:31:04;;;;;;;20.80;2.38;;;;;;;2.19;95.63;103613.59;5073423;28;20089;-78
2022/01/21 06:33:30;;;;;;;12.98;2.08;;;;;;;2.32;93.96;103611.72;5072522;28;20036;-78
2022/01/21 06:35:55;;;;;;;21.60;2.10;;;;;;;2.44;93.00;103614.19;5072208;28;20039;-80
2022/01/21 06:38:21;;;;;;;15.02;1.83;;;;;;;2.54;92.15;103619.31;5072498;28;20062;-80
2022/01/21 06:40:48;;;;;;;16.15;2.58;;;;;;;2.64;91.80;103615.69;5072655;28;20479;-80
2022/01/21 06:43:14;;;;;;;17.50;2.50;;;;;;;2.73;90.84;103612.09;5073036;28;20027;-79
2022/01/21 06:45:39;;;;;;;16.58;2.05;;;;;;;2.72;90.07;103626.13;5073251;28;20032;-80
2022/01/21 06:48:05;;;;;;;19.08;2.58;;;;;;;2.66;89.41;103634.97;5072805;28;20469;-79
2022/01/21 06:50:33;;;;;;;17.13;2.03;;;;;;;2.64;88.65;103624.47;5071766;28;20033;-80
2022/01/21 06:52:58;;;;;;;15.07;2.22;;;;;;;2.65;88.91;103620.06;5073257;28;20056;-80
2022/01/21 06:55:24;;;;;;;11.43;2.28;;;;;;;2.67;88.69;103622.69;5073411;28;20036;-80
2022/01/21 06:57:49;;;;;;;14.93;2.00;;;;;;;2.76;88.13;103619.94;5073345;28;20033;-80
2022/01/21 07:00:18;;;;;;;9.43;1.63;;;;;;;2.81;87.63;103621.63;5073347;28;20056;-80
2022/01/21 07:02:45;;;;;;;13.80;1.92;;;;;;;2.84;87.24;103612.81;5073888;28;20032;-79
2022/01/21 07:05:11;;;;;;;16.23;2.20;;;;;;;2.85;87.37;103618.94;5073249;28;20111;-79
2022/01/21 07:07:36;;;;;;;15.95;1.90;;;;;;;2.84;87.46;103620.72;5072894;28;20028;-78
2022/01/21 07:10:06;;;;;;;18.50;2.20;;;;;;;2.83;87.90;103626.84;5073342;28;20081;-79
2022/01/21 07:12:32;;;;;;;13.07;1.73;;;;;;;2.81;88.20;103621.63;5073621;28;20025;-79
2022/01/21 07:14:57;;;;;;;24.70;2.58;;;;;;;2.79;87.97;103614.63;5073691;28;20028;-79
2022/01/21 07:17:23;;;;;;;16.70;2.80;;;;;;;2.70;88.10;103622.63;5073001;28;20033;-80
2022/01/21 07:19:48;;;;;;;8.52;1.70;;;;;;;2.57;88.48;103622.81;5072967;28;20025;-81
2022/01/21 07:22:14;;;;;;;21.00;2.50;;;;;;;2.43;89.08;103625.59;5072976;28;20029;-78
2022/01/21 07:24:39;;;;;;;16.75;2.33;;;;;;;2.31;89.54;103630.13;5071533;28;20481;-80
2022/01/21 07:27:05;;;;;;;13.13;1.92;;;;;;;2.18;89.84;103638.13;5072792;28;20029;-80
2022/01/21 07:29:30;;;;;;;17.55;2.15;;;;;;;2.07;90.14;103645.25;5072730;28;20060;-79
2022/01/21 07:31:56;;;;;;;17.13;2.47;;;;;;;1.97;90.67;103644.47;5073023;28;20037;-78
2022/01/21 07:34:23;;;;;;;16.27;2.30;;;;;;;1.91;91.75;103639.25;5071340;28;20496;-77
2022/01/21 07:36:48;;;;;;;16.38;2.45;;;;;;;1.88;91.96;103645.44;5072740;28;20032;-77
2022/01/21 07:39:14;;;;;;;26.17;3.05;;;;;;;1.88;92.99;103655.94;5072587;28;20036;-77
2022/01/21 07:41:39;;;;;;;16.63;2.67;;;;;;;1.94;93.55;103652.34;5072285;28;20067;-77
2022/01/21 07:44:05;;;;;;;25.45;3.17;;;;;;;2.07;93.85;103645.25;5071294;28;20062;-77
2022/01/21 07:46:30;;;;;;;18.17;2.65;;;;;;;2.24;93.70;103648.59;5072298;28;20419;-79
2022/01/21 07:48:57;;;;;;;18.30;3.00;;;;;;;2.39;93.94;103639.66;5072551;28;20032;-77
2022/01/21 07:51:23;;;;;;;18.38;2.28;;;;;;;2.54;93.71;103642.97;5075427;28;20025;-77
2022/01/21 07:53:48;;;;;;;17.42;2.55;;;;;;;2.64;93.49;103645.50;5056924;28;20124;-76
2022/01/21 07:56:14;;;;;;;18.90;2.63;;;;;;;2.70;93.37;103647.16;5072698;28;20029;-78
2022/01/21 07:58:39;;;;;;;17.63;2.08;;;;;;;2.70;93.18;103647.16;5072547;28;20090;-78
2022/01/21 08:01:05;;;;;;;16.02;2.78;;;;;;;2.73;93.39;103643.63;5072380;28;20029;-80
2022/01/21 08:03:30;;;;;;;17.13;2.45;;;;;;;2.75;93.33;103644.50;5071255;28;20025;-76
2022/01/21 08:05:55;;;;;;;24.15;2.50;;;;;;;2.78;93.32;103641.84;5071025;28;20029;-76
2022/01/21 08:08:21;;;;;;;17.10;2.53;;;;;;;2.85;93.10;103643.47;5072617;28;20029;-77
2022/01/21 08:10:46;;;;;;;20.80;3.00;;;;;;;2.91;92.64;103638.16;5075885;28;20036;-78
2022/01/21 08:13:12;;;;;;;17.42;2.13;;;;;;;2.99;92.59;103638.91;5075741;28;20314;-78
2022/01/21 08:15:37;;;;;;;21.70;3.10;;;;;;;3.06;92.20;103641.44;5074505;28;20119;-80
2022/01/21 08:18:03;;;;;;;14.40;2.15;;;;;;;3.13;91.79;103640.47;5075390;28;20060;-79
2022/01/21 08:20:29;;;;;;;19.52;2.17;;;;;;;3.25;91.70;103655.22;5075742;28;20027;-80
2022/01/21 08:22:55;;;;;;;15.35;1.67;;;;;;;3.35;91.11;103659.44;5075722;28;20040;-81
2022/01/21 08:25:20;;;;;;;15.18;2.17;;;;;;;3.44;90.28;103664.56;5075541;28;20033;-78
2022/01/21 08:27:46;;;;;;;17.60;2.40;;;;;;;3.50;89.74;103653.94;5075319;28;20107;-80
2022/01/21 08:30:13;;;;;;;16.88;2.30;;;;;;;3.61;89.75;103652.91;5075319;28;20487;-78
2022/01/21 08:32:38;;;;;;;14.57;2.30;;;;;;;3.68;89.64;103658.03;5075331;28;20469;-75
2022/01/21 08:35:06;;;;;;;12.40;2.30;;;;;;;3.77;89.61;103651.75;5075333;28;20040;-79
2022/01/21 08:37:32;;;;;;;12.52;1.80;;;;;;;3.82;89.25;103654.31;5075408;28;20152;-81
2022/01/21 08:39:57;;;;;;;21.73;2.20;;;;;;;3.92;89.12;103657.66;5074127;28;20032;-80
2022/01/21 08:42:23;;;;;;;15.88;2.05;;;;;;;4.00;88.50;103658.38;5075232;28;20021;-80
2022/01/21 08:44:48;;;;;;;18.58;2.15;;;;;;;4.07;88.31;103657.38;5075316;28;20131;-78
2022/01/21 08:47:15;;;;;;;23.08;2.55;;;;;;;4.13;88.22;103665.16;5075380;28;20025;-78
2022/01/21 08:49:43;;;;;;;16.67;2.17;;;;;;;4.21;87.90;103649.22;5075189;28;20036;-77
2022/01/21 08:52:18;;;;;;;11.35;2.10;;;;;;;4.27;87.51;103646.50;5074915;28;20084;-78
2022/01/21 08:54:43;;;;;;;13.45;2.67;;;;;;;4.35;87.35;103639.28;5075271;28;20103;-78
2022/01/21 08:57:09;;;;;;;17.60;2.72;;;;;;;4.44;87.10;103645.28;5074199;28;20031;-78
2022/01/21 08:59:34;;;;;;;25.52;2.47;;;;;;;4.50;86.94;103643.38;5075396;28;20024;-78
2022/01/21 09:01:59;;;;;;;14.75;2.85;;;;;;;4.57;86.60;103646.78;5074984;28;20525;-79
2022/01/21 09:04:25;;;;;;;26.38;2.30;;;;;;;4.63;86.75;103651.94;5074535;28;20025;-79
2022/01/21 09:06:51;;;;;;;28.08;2.97;;;;;;;4.64;86.35;103643.09;5075548;28;20045;-79
2022/01/21 09:09:17;;;;;;;18.23;2.13;;;;;;;4.65;86.72;103639.56;5074730;28;20100;-78
2022/01/21 09:11:42;;;;;;;17.67;2.63;;;;;;;4.64;87.18;103644.88;5074580;28;20032;-79
2022/01/21 09:14:08;;;;;;;15.88;2.30;;;;;;;4.67;87.32;103653.59;5074822;28;20365;-78
2022/01/21 09:16:34;;;;;;;6.82;1.75;;;;;;;4.68;87.80;103649.19;5074580;28;20044;-79
2022/01/21 09:19:03;;;;;;;13.63;1.73;;;;;;;4.72;88.42;103635.91;5073399;28;20040;-77
2022/01/21 09:21:31;;;;;;;8.73;1.42;;;;;;;4.75;88.65;103653.44;5073208;28;20137;-76
2022/01/21 09:23:57;;;;;;;17.45;1.92;;;;;;;4.77;88.61;103635.81;5074203;28;20065;-79
2022/01/21 09:26:24;;;;;;;19.33;1.95;;;;;;;4.76;88.88;103639.34;5073253;28;20028;-77
2022/01/21 09:28:51;;;;;;;14.50;2.22;;;;;;;4.80;88.81;103643.66;5074236;28;20115;-77
2022/01/21 09:31:17;;;;;;;14.15;1.55;;;;;;;4.81;89.73;103640.13;5074453;28;20037;-78
2022/01/21 09:33:43;;;;;;;9.98;1.60;;;;;;;4.82;89.81;103627.78;5073190;28;20036;-77
2022/01/21 09:36:10;;;;;;;10.55;1.50;;;;;;;4.86;90.14;103642.66;5074483;28;20036;-77
2022/01/21 09:38:35;;;;;;;12.75;1.55;;;;;;;4.93;89.99;103638.97;5073927;28;20106;-78
2022/01/21 09:43:47;;;;;;;14.13;2.00;;;;;;;5.03;89.15;103648.44;5074148;28;20471;-77
2022/01/21 09:46:13;;;;;;;8.38;1.38;;;;;;;5.09;89.58;103643.03;5072761;28;20036;-76
2022/01/21 09:49:07;;;;;;;14.70;1.95;;;;;;;5.21;89.48;103640.97;5074177;28;20514;-78
2022/01/21 09:51:34;;;;;;;16.88;1.80;;;;;;;5.29;88.90;103647.81;5073841;28;20402;-80
2022/01/21 09:54:01;;;;;;;9.07;1.38;;;;;;;5.38;88.45;103648.53;5074201;28;20028;-79
2022/01/21 09:56:28;;;;;;;13.55;1.83;;;;;;;5.43;88.36;103657.19;5073845;28;20051;-76
2022/01/21 09:58:55;;;;;;;16.00;2.28;;;;;;;5.51;88.13;103657.00;5074463;28;20064;-78
2022/01/21 10:01:20;;;;;;;13.00;2.85;;;;;;;5.57;87.52;103655.09;5074297;28;20032;-77
2022/01/21 10:03:47;;;;;;;18.00;2.05;;;;;;;5.58;86.95;103658.59;5074785;28;20086;-80
2022/01/21 10:06:13;;;;;;;9.85;1.65;;;;;;;5.55;86.97;103662.16;5074997;28;20468;-79
2022/01/21 10:08:41;;;;;;;12.02;2.13;;;;;;;5.47;87.11;103665.00;5072512;28;20119;-79
2022/01/21 10:11:08;;;;;;;13.27;1.90;;;;;;;5.49;87.55;103662.31;5073864;28;20037;-78
2022/01/21 10:13:35;;;;;;;22.42;2.00;;;;;;;5.65;86.97;103653.13;5073424;28;20496;-78
2022/01/21 10:16:03;;;;;;;13.23;2.15;;;;;;;6.00;86.12;103659.34;5073472;28;20064;-79
2022/01/21 10:18:28;;;;;;;19.70;2.67;;;;;;;6.40;84.26;103667.94;5073611;28;20040;-78
2022/01/21 10:21:12;;;;;;;11.68;1.73;;;;;;;6.46;83.34;103672.19;5072220;28;20037;-78
2022/01/21 10:23:40;;;;;;;15.13;2.17;;;;;;;6.12;83.45;103671.34;5072327;28;20040;-76
2022/01/21 10:26:11;;;;;;;16.05;2.28;;;;;;;5.81;83.93;103681.81;5073688;28;20024;-77
2022/01/21 10:28:42;;;;;;;10.35;1.67;;;;;;;5.69;84.50;103675.06;5073663;28;20028;-78
2022/01/21 10:31:13;;;;;;;14.40;2.22;;;;;;;5.64;85.28;103674.28;5072837;28;20039;-78
2022/01/21 10:33:45;;;;;;;21.65;2.28;;;;;;;5.69;85.60;103672.44;5073514;28;20153;-79
2022/01/21 10:36:34;;;;;;;12.98;2.08;;;;;;;5.75;85.60;103664.34;5073693;28;20036;-79
2022/01/21 10:39:17;;;;;;;15.00;2.63;;;;;;;5.79;84.94;103665.13;5073774;28;20028;-77
2022/01/21 10:41:45;;;;;;;10.85;1.58;;;;;;;5.79;85.31;103659.84;5073460;28;20457;-76
2022/01/21 10:44:16;;;;;;;11.23;1.65;;;;;;;5.81;84.40;103663.31;5073371;28;20484;-76
2022/01/21 10:46:47;;;;;;;14.07;2.08;;;;;;;5.76;84.05;103657.28;5072610;28;20032;-78
2022/01/21 10:49:14;;;;;;;12.65;2.03;;;;;;;5.76;84.69;103662.56;5072812;28;20028;-77
2022/01/21 10:51:47;;;;;;;11.05;2.58;;;;;;;5.81;85.23;103668.59;5072132;28;20501;-76
2022/01/21 10:54:26;;;;;;;11.10;1.77;;;;;;;5.92;84.41;103657.75;5073427;28;20090;-78
2022/01/21 10:57:16;;;;;;;15.20;2.08;;;;;;;6.06;84.41;103662.72;5072962;28;20040;-79
2022/01/21 10:59:53;;;;;;;13.75;2.75;;;;;;;6.30;83.48;103661.16;5073069;28;20116;-77
2022/01/21 11:02:47;;;;;;;16.10;1.90;;;;;;;6.55;82.40;103650.78;5073456;28;20060;-80
2022/01/21 11:05:38;;;;;;;10.50;1.80;;;;;;;6.66;81.71;103653.13;5071954;28;20021;-78
2022/01/21 11:08:07;;;;;;;10.27;2.03;;;;;;;6.69;81.22;103650.41;5073500;28;20036;-79
2022/01/21 11:10:34;;;;;;;11.68;2.05;;;;;;;6.82;81.75;103650.88;5071965;28;20441;-78
2022/01/21 11:13:01;;;;;;;19.48;2.28;;;;;;;7.06;80.79;103652.81;5074760;28;20036;-79
2022/01/21 11:15:58;;;;;;;13.88;2.42;;;;;;;7.59;79.24;103646.69;5072921;28;20473;-77
2022/01/21 11:18:29;;;;;;;15.40;2.50;;;;;;;8.56;75.68;103637.13;5072353;28;20029;-80
2022/01/21 11:21:06;;;;;;;19.45;2.55;;;;;;;9.20;70.26;103640.88;5073594;28;20036;-75
2022/01/21 11:23:33;;;;;;;11.23;2.03;;;;;;;8.66;71.31;103656.25;5073140;28;20146;-77
2022/01/21 11:26:01;;;;;;;19.35;2.53;;;;;;;7.97;73.18;103662.19;5072637;28;20036;-79
2022/01/21 11:28:50;;;;;;;19.55;2.20;;;;;;;7.33;76.38;103663.44;5072569;28;20464;-78
2022/01/21 11:31:18;;;;;;;17.33;2.28;;;;;;;6.86;77.69;103657.81;5072957;28;20033;-79
2022/01/21 11:33:44;;;;;;;18.27;2.13;;;;;;;6.48;79.42;103658.03;5072986;28;20028;-78
2022/01/21 11:36:10;;;;;;;19.88;3.53;;;;;;;6.36;80.48;103658.38;5072983;28;20071;-77
2022/01/21 11:38:38;;;;;;;15.45;2.40;;;;;;;6.25;81.02;103656.00;5073115;28;20058;-77
2022/01/21 11:41:08;;;;;;;17.00;2.72;;;;;;;6.23;81.66;103671.06;5073151;28;20033;-78
2022/01/21 11:43:35;;;;;;;21.77;2.85;;;;;;;6.30;82.02;103655.88;5075581;28;20032;-77
2022/01/21 11:46:16;;;;;;;20.67;3.03;;;;;;;6.44;82.25;103652.88;5075505;28;20048;-78
2022/01/21 11:48:52;;;;;;;18.08;3.28;;;;;;;6.60;81.52;103653.28;5077059;28;20032;-77
2022/01/21 11:51:37;;;;;;;16.70;2.60;;;;;;;6.70;80.70;103634.47;5076731;28;20082;-79
2022/01/21 11:54:13;;;;;;;10.63;3.08;;;;;;;6.63;81.03;103640.84;5076295;28;20123;-78
2022/01/21 11:56:57;;;;;;;17.83;2.38;;;;;;;6.55;80.16;103634.03;5074882;28;20035;-77
2022/01/21 12:02:31;;;;;;;16.67;2.90;;;;;;;6.30;80.88;103632.97;5076586;28;20104;-83
2022/01/21 12:05:01;;;;;;;20.13;3.67;;;;;;;6.18;80.78;103636.81;5067904;28;20395;-78
2022/01/21 12:07:35;;;;;;;24.33;2.88;;;;;;;6.05;82.28;103639.84;5075743;28;20089;-78
2022/01/21 12:10:09;;;;;;;22.27;2.85;;;;;;;5.93;83.02;103630.44;5075573;28;20039;-79
2022/01/21 12:13:00;;;;;;;17.17;2.85;;;;;;;5.95;83.01;103623.31;5075787;28;20055;-80
2022/01/21 12:20:51;;;;;;;19.73;2.72;;;;;;;6.06;84.26;103625.69;5075621;28;20032;-77
2022/01/21 12:23:21;;;;;;;23.60;2.97;;;;;;;6.13;84.14;103616.69;5075138;28;20064;-80
2022/01/21 12:26:08;;;;;;;17.83;3.05;;;;;;;6.13;83.58;103614.06;5075454;28;20032;-77
2022/01/21 12:28:40;;;;;;;30.20;3.28;;;;;;;6.20;83.80;103612.97;5074085;28;20046;-78
2022/01/21 12:31:07;;;;;;;26.75;3.53;;;;;;;6.18;83.50;103614.81;5075763;28;20028;-78